Time;durP1;ratioP1;P1;durP2;ratioP2;P2;SDS_P1;SDS_P2;PMS_P1;PMS_P2;Temp;Humidity;BMP_temperature;BMP_pressure;BME280_temperature;BME280_humidity;BME280_pressure;Samples;Min_cycle;Max_cycle;Signal;HPM_P1;HPM_P2
2022/06/07 00:00:55;;;;;;;;;;;;;;;27.38;42.55;94276.03;5003085;28;7265;-62
2022/06/07 00:03:21;;;;;;;;;;;;;;;27.39;42.53;94279.53;4999908;28;9412;-62
2022/06/07 00:05:51;;;;;;;;;;;;;;;27.38;42.67;94273.28;4993117;28;9591;-62
2022/06/07 00:08:21;;;;;;;;;;;;;;;27.35;42.87;94256.97;5027434;28;6981;-62
2022/06/07 00:10:47;;;;;;;;;;;;;;;27.36;43.30;94270.28;5003731;28;8407;-62
2022/06/07 00:13:15;;;;;;;;;;;;;;;27.34;42.72;94278.31;5007888;28;9069;-62
2022/06/07 00:15:43;;;;;;;;;;;;;;;27.34;42.68;94278.31;5012613;28;8851;-62
2022/06/07 00:18:10;;;;;;;;;;;;;;;27.33;43.24;94278.88;5011513;28;7064;-62
2022/06/07 00:20:43;;;;;;;;;;;;;;;27.32;43.06;94283.63;4996814;28;7552;-62
2022/06/07 00:23:13;;;;;;;;;;;;;;;27.31;42.63;94276.63;5009610;28;8702;-62
2022/06/07 00:25:40;;;;;;;;;;;;;;;27.31;42.99;94279.41;4992216;28;9079;-63
2022/06/07 00:28:06;;;;;;;;;;;;;;;27.32;42.59;94291.16;5012338;28;7246;-62
2022/06/07 00:30:39;;;;;;;;;;;;;;;27.33;42.70;94282.38;5023286;28;9138;-62
2022/06/07 00:33:05;;;;;;;;;;;;;;;27.32;42.84;94285.63;4996865;28;9131;-63
2022/06/07 00:35:32;;;;;;;;;;;;;;;27.31;42.96;94284.91;5009763;28;9195;-62
2022/06/07 00:38:05;;;;;;;;;;;;;;;27.31;42.96;94276.63;5014465;28;6989;-62
2022/06/07 00:40:33;;;;;;;;;;;;;;;27.31;43.12;94268.34;4995018;28;9078;-62
2022/06/07 00:43:24;;;;;;;;;;;;;;;27.33;42.37;94271.31;5005296;28;7154;-62
2022/06/07 00:45:50;;;;;;;;;;;;;;;27.32;42.90;94260.78;5009435;28;8768;-62
2022/06/07 00:48:17;;;;;;;;;;;;;;;27.31;43.07;94251.78;5022075;28;9316;-62
2022/06/07 00:50:56;;;;;;;;;;;;;;;27.32;42.85;94249.75;4993272;28;9377;-63
2022/06/07 00:53:27;;;;;;;;;;;;;;;27.32;43.04;94244.97;5007204;28;7042;-63
2022/06/07 00:55:55;;;;;;;;;;;;;;;27.30;43.07;94247.50;5004234;28;9019;-63
2022/06/07 00:58:26;;;;;;;;;;;;;;;27.31;43.30;94246.25;5008567;28;10060;-63
2022/06/07 01:00:53;;;;;;;;;;;;;;;27.31;42.36;94243.50;5009263;28;9080;-63
2022/06/07 01:03:20;;;;;;;;;;;;;;;27.32;42.38;94244.97;5003186;28;7068;-62
2022/06/07 01:05:53;;;;;;;;;;;;;;;27.31;42.32;94251.78;5009900;28;9485;-63
2022/06/07 01:11:06;;;;;;;;;;;;;;;27.31;42.48;94237.22;5015822;28;9126;-62
2022/06/07 01:13:35;;;;;;;;;;;;;;;27.31;42.98;94239.97;5017914;28;9136;-62
2022/06/07 01:16:07;;;;;;;;;;;;;;;27.31;42.61;94234.47;5002843;28;7094;-62
2022/06/07 01:18:35;;;;;;;;;;;;;;;27.31;42.58;94234.47;5017704;28;7877;-63
2022/06/07 01:21:41;;;;;;;;;;;;;;;27.29;42.41;94218.41;5014105;28;7423;-62
2022/06/07 01:24:17;;;;;;;;;;;;;;;27.27;42.76;94229.25;4998456;28;7493;-62
2022/06/07 01:27:03;;;;;;;;;;;;;;;27.29;42.79;94231.47;5018775;28;9245;-62
2022/06/07 01:29:29;;;;;;;;;;;;;;;27.28;42.40;94225.19;5000426;28;9403;-62
2022/06/07 01:32:02;;;;;;;;;;;;;;;27.28;43.32;94219.69;5015308;28;6990;-62
2022/06/07 01:34:32;;;;;;;;;;;;;;;27.29;42.69;94221.19;5003366;28;9767;-62
2022/06/07 01:37:00;;;;;;;;;;;;;;;27.26;43.05;94213.94;5016214;28;7285;-62
2022/06/07 01:42:14;;;;;;;;;;;;;;;27.27;43.12;94209.91;5033079;28;7718;-63
2022/06/07 01:44:49;;;;;;;;;;;;;;;27.26;42.69;94205.66;5016008;28;7524;-63
2022/06/07 01:47:25;;;;;;;;;;;;;;;27.26;42.85;94211.19;5019648;28;7313;-62
2022/06/07 01:49:51;;;;;;;;;;;;;;;27.27;42.63;94218.19;5028824;28;7252;-62
2022/06/07 01:52:25;;;;;;;;;;;;;;;27.25;42.34;94204.16;5001871;28;7066;-62
2022/06/07 01:54:53;;;;;;;;;;;;;;;27.25;42.78;94203.44;5022230;28;9098;-62
2022/06/07 01:57:31;;;;;;;;;;;;;;;27.26;42.88;94204.91;5016131;28;9079;-62
2022/06/07 02:00:01;;;;;;;;;;;;;;;27.26;42.79;94202.13;5013950;28;7062;-62
2022/06/07 02:02:28;;;;;;;;;;;;;;;27.23;43.07;94200.44;5018171;28;7514;-62
2022/06/07 02:04:58;;;;;;;;;;;;;;;27.22;42.33;94196.94;5019940;28;6960;-62
2022/06/07 02:07:39;;;;;;;;;;;;;;;27.21;42.49;94192.66;5014494;28;9056;-62
2022/06/07 02:10:06;;;;;;;;;;;;;;;27.20;42.75;94191.19;5007353;28;7385;-62
2022/06/07 02:12:36;;;;;;;;;;;;;;;27.19;42.54;94181.41;4997039;28;7303;-62
2022/06/07 02:15:03;;;;;;;;;;;;;;;27.21;43.17;94191.94;5005829;28;6984;-62
2022/06/07 02:17:38;;;;;;;;;;;;;;;27.21;42.95;94186.44;5025904;28;7010;-62
2022/06/07 02:20:05;;;;;;;;;;;;;;;27.18;42.80;94179.94;5002469;28;9262;-62
2022/06/07 02:22:33;;;;;;;;;;;;;;;27.16;42.86;94179.72;5013416;28;7009;-63
2022/06/07 02:25:04;;;;;;;;;;;;;;;27.18;42.66;94179.19;5028024;28;9116;-62
2022/06/07 02:27:33;;;;;;;;;;;;;;;27.17;42.28;94172.91;5006002;28;7291;-62
2022/06/07 02:29:59;;;;;;;;;;;;;;;27.17;42.55;94175.66;5003262;28;7291;-62
2022/06/07 02:32:33;;;;;;;;;;;;;;;27.16;42.81;94179.72;5005593;28;7068;-63
2022/06/07 02:35:04;;;;;;;;;;;;;;;27.18;42.52;94176.41;5013196;28;7235;-63
2022/06/07 02:37:37;;;;;;;;;;;;;;;27.15;42.78;94178.22;5015094;28;6970;-62
2022/06/07 02:40:05;;;;;;;;;;;;;;;27.16;43.03;94174.19;5025645;28;7620;-63
2022/06/07 02:43:06;;;;;;;;;;;;;;;27.14;43.00;94170.47;5015234;28;7261;-62
2022/06/07 02:45:34;;;;;;;;;;;;;;;27.14;43.07;94165.69;4925490;29;7370;-63
2022/06/07 02:48:02;;;;;;;;;;;;;;;27.15;42.87;94171.94;4928256;29;9093;-62
2022/06/07 02:50:32;;;;;;;;;;;;;;;27.12;42.62;94168.22;4932157;29;7093;-63
2022/06/07 02:53:07;;;;;;;;;;;;;;;27.13;42.66;94175.25;4925428;29;9111;-62
2022/06/07 02:55:33;;;;;;;;;;;;;;;27.13;42.96;94185.53;4928736;29;9074;-62
2022/06/07 02:58:02;;;;;;;;;;;;;;;27.13;43.28;94182.78;4925314;29;6990;-62
2022/06/07 03:00:28;;;;;;;;;;;;;;;27.13;42.34;94177.25;4910514;29;7143;-62
2022/06/07 03:02:54;;;;;;;;;;;;;;;27.12;42.96;94170.25;4922759;29;9682;-62
2022/06/07 03:05:20;;;;;;;;;;;;;;;27.13;42.71;94168.97;4911925;29;6983;-63
2022/06/07 03:07:46;;;;;;;;;;;;;;;27.12;43.04;94179.25;4902530;29;9078;-62
2022/06/07 03:10:12;;;;;;;;;;;;;;;27.13;42.59;94175.25;4922182;29;7156;-62
2022/06/07 03:12:40;;;;;;;;;;;;;;;27.14;43.00;94178.75;4913725;29;7995;-63
2022/06/07 03:15:08;;;;;;;;;;;;;;;27.10;43.04;94181.81;4920650;29;6962;-62
2022/06/07 03:17:35;;;;;;;;;;;;;;;27.12;42.34;94182.00;4905058;29;6972;-62
2022/06/07 03:20:09;;;;;;;;;;;;;;;27.11;42.94;94180.53;4997635;28;7047;-63
2022/06/07 03:22:38;;;;;;;;;;;;;;;27.09;43.04;94183.09;5002220;28;7291;-63
2022/06/07 03:25:07;;;;;;;;;;;;;;;27.09;42.82;94193.38;5017752;28;8671;-63
2022/06/07 03:27:37;;;;;;;;;;;;;;;27.09;42.54;94188.59;5019617;28;7544;-62
2022/06/07 03:30:08;;;;;;;;;;;;;;;27.08;42.99;94195.38;4998109;28;7563;-62
2022/06/07 03:32:49;;;;;;;;;;;;;;;27.08;43.30;94192.63;5012558;28;7200;-62
2022/06/07 03:35:18;;;;;;;;;;;;;;;27.08;42.84;94205.72;5017876;28;9029;-62
2022/06/07 03:37:53;;;;;;;;;;;;;;;27.08;43.31;94211.94;5015556;28;8240;-63
2022/06/07 03:43:07;;;;;;;;;;;;;;;27.08;42.58;94214.00;5025161;28;7304;-62
2022/06/07 03:45:35;;;;;;;;;;;;;;;27.08;42.99;94206.44;4995228;28;8793;-63
2022/06/07 03:48:02;;;;;;;;;;;;;;;27.06;42.69;94200.69;5007626;28;7444;-62
2022/06/07 03:50:27;;;;;;;;;;;;;;;27.06;43.00;94224.78;4999838;28;9409;-63
2022/06/07 03:53:03;;;;;;;;;;;;;;;27.05;43.31;94218.53;5007783;28;7354;-63
2022/06/07 03:55:36;;;;;;;;;;;;;;;27.02;42.38;94225.09;5002533;28;7281;-63
2022/06/07 03:58:03;;;;;;;;;;;;;;;26.99;42.95;94248.22;4999527;28;9220;-63
2022/06/07 04:00:32;;;;;;;;;;;;;;;26.97;43.02;94233.47;5020942;28;7450;-63
2022/06/07 04:03:15;;;;;;;;;;;;;;;26.96;42.75;94227.19;5010441;28;7950;-63
2022/06/07 04:05:44;;;;;;;;;;;;;;;26.98;43.16;94234.94;5004758;28;9716;-62
2022/06/07 04:08:13;;;;;;;;;;;;;;;27.01;42.70;94223.63;5013132;28;9326;-63
2022/06/07 04:10:55;;;;;;;;;;;;;;;27.01;43.11;94231.91;5014701;28;9109;-63
2022/06/07 04:13:24;;;;;;;;;;;;;;;27.03;42.83;94240.41;5010015;28;7282;-63
2022/06/07 04:15:52;;;;;;;;;;;;;;;27.04;43.14;94236.34;4998786;28;9054;-63
2022/06/07 04:18:24;;;;;;;;;;;;;;;27.03;42.68;94242.41;4997007;28;7278;-63
2022/06/07 04:21:00;;;;;;;;;;;;;;;27.03;43.18;94240.41;5016591;28;8842;-63
2022/06/07 04:23:27;;;;;;;;;;;;;;;26.96;43.06;94234.72;5018450;28;9046;-62
2022/06/07 04:25:53;;;;;;;;;;;;;;;26.96;43.32;94237.47;5005916;28;9039;-63
2022/06/07 04:28:25;;;;;;;;;;;;;;;27.01;43.05;94237.44;5005137;28;7283;-63
2022/06/07 04:30:54;;;;;;;;;;;;;;;27.01;42.42;94237.44;5002489;28;7687;-63
2022/06/07 04:33:21;;;;;;;;;;;;;;;26.99;42.89;94241.97;5001007;28;7295;-63
2022/06/07 04:35:47;;;;;;;;;;;;;;;26.98;43.05;94243.97;4992827;28;8787;-63
2022/06/07 04:38:13;;;;;;;;;;;;;;;26.98;43.23;94243.97;4998301;28;7648;-63
2022/06/07 04:40:42;;;;;;;;;;;;;;;27.00;42.86;94251.72;5018223;28;9131;-63
2022/06/07 04:43:11;;;;;;;;;;;;;;;26.97;43.19;94256.28;5010932;28;9114;-62
2022/06/07 04:45:39;;;;;;;;;;;;;;;26.96;43.06;94249.28;5022847;28;9267;-63
2022/06/07 04:48:16;;;;;;;;;;;;;;;26.94;43.32;94257.34;5003103;28;8278;-62
2022/06/07 04:51:07;;;;;;;;;;;;;;;26.94;42.90;94259.34;5003935;28;7262;-63
2022/06/07 04:53:36;;;;;;;;;;;;;;;26.92;43.17;94257.84;4997433;28;7235;-62
2022/06/07 04:56:24;;;;;;;;;;;;;;;26.89;42.80;94269.94;5020176;28;9065;-62
2022/06/07 04:58:53;;;;;;;;;;;;;;;26.89;43.57;94283.00;5008249;28;7248;-62
2022/06/07 05:01:32;;;;;;;;;;;;;;;26.88;42.63;94270.47;5022461;28;7251;-62
2022/06/07 05:03:59;;;;;;;;;;;;;;;26.87;42.98;94275.25;5017772;28;7378;-62
2022/06/07 05:06:39;;;;;;;;;;;;;;;26.87;43.25;94268.97;5019949;28;7346;-62
2022/06/07 05:09:10;;;;;;;;;;;;;;;26.89;42.87;94280.97;5028048;28;6962;-62
2022/06/07 05:11:38;;;;;;;;;;;;;;;26.89;43.46;94278.22;5009008;28;7028;-62
2022/06/07 05:14:08;;;;;;;;;;;;;;;26.91;43.39;94285.97;5014672;28;6857;-62
2022/06/07 05:16:38;;;;;;;;;;;;;;;26.89;43.46;94283.75;5013077;28;7082;-63
2022/06/07 05:19:12;;;;;;;;;;;;;;;26.90;43.70;94284.50;5009278;28;7227;-62
2022/06/07 05:21:39;;;;;;;;;;;;;;;26.87;43.29;94289.03;5016947;28;7169;-62
2022/06/07 05:24:07;;;;;;;;;;;;;;;26.87;42.95;94289.03;5027025;28;7916;-63
2022/06/07 05:27:03;;;;;;;;;;;;;;;26.89;42.93;94291.28;5025554;28;9679;-62
2022/06/07 05:29:58;;;;;;;;;;;;;;;26.90;43.18;94301.06;4916615;29;7310;-63
2022/06/07 05:32:38;;;;;;;;;;;;;;;26.90;43.51;94303.81;4875154;29;7426;-63
2022/06/07 05:35:08;;;;;;;;;;;;;;;26.89;43.34;94305.81;4876742;29;9486;-62
2022/06/07 05:37:35;;;;;;;;;;;;;;;26.87;42.92;94313.13;4870816;29;9058;-62
2022/06/07 05:40:26;;;;;;;;;;;;;;;26.88;43.12;94320.16;4862263;29;7218;-63
2022/06/07 05:43:01;;;;;;;;;;;;;;;26.86;43.34;94317.91;4859552;29;7406;-63
2022/06/07 05:45:38;;;;;;;;;;;;;;;26.86;43.79;94317.91;4876853;29;9129;-63
2022/06/07 05:48:05;;;;;;;;;;;;;;;26.83;43.05;94318.94;4874317;29;9229;-62
2022/06/07 05:50:49;;;;;;;;;;;;;;;26.85;43.36;94310.91;4875558;29;7070;-62
2022/06/07 05:53:15;;;;;;;;;;;;;;;26.83;43.56;94299.63;4876853;29;8953;-62
2022/06/07 05:56:13;;;;;;;;;;;;;;;26.84;43.15;94314.91;4875111;29;8808;-62
2022/06/07 05:58:53;;;;;;;;;;;;;;;26.82;43.25;94306.41;4796067;29;8983;-62
2022/06/07 06:01:29;;;;;;;;;;;;;;;26.81;42.99;94315.22;4817633;29;7257;-62
2022/06/07 06:03:55;;;;;;;;;;;;;;;26.77;43.60;94304.47;4789493;29;9079;-62
2022/06/07 06:06:21;;;;;;;;;;;;;;;26.79;43.21;94323.28;4832978;29;9134;-62
2022/06/07 06:12:06;;;;;;;;;;;;;;;26.75;43.19;94322.81;4908760;29;8222;-62
2022/06/07 06:14:33;;;;;;;;;;;;;;;26.76;42.94;94322.28;4906430;29;7170;-63
2022/06/07 06:16:59;;;;;;;;;;;;;;;26.77;43.07;94323.03;4906501;29;9087;-63
2022/06/07 06:19:46;;;;;;;;;;;;;;;26.76;43.45;94333.34;4913768;29;7287;-63
2022/06/07 06:22:20;;;;;;;;;;;;;;;26.74;43.14;94327.59;4905265;29;7283;-63
2022/06/07 06:24:54;;;;;;;;;;;;;;;26.77;42.62;94320.28;4913257;29;9034;-63
2022/06/07 06:27:22;;;;;;;;;;;;;;;26.76;43.60;94322.28;4903094;29;7151;-63
2022/06/07 06:29:48;;;;;;;;;;;;;;;26.75;42.76;94326.31;4912845;29;8774;-64
2022/06/07 06:32:24;;;;;;;;;;;;;;;26.75;42.98;94325.59;4902806;29;7250;-63
2022/06/07 06:34:50;;;;;;;;;;;;;;;26.77;43.49;94334.81;4922062;28;9120;-63
2022/06/07 06:37:19;;;;;;;;;;;;;;;26.76;43.30;94330.56;4940470;28;7227;-63
2022/06/07 06:39:45;;;;;;;;;;;;;;;26.78;42.71;94332.81;4926196;29;7021;-63
2022/06/07 06:42:15;;;;;;;;;;;;;;;26.78;43.08;94336.31;4947631;28;7142;-63
2022/06/07 06:44:53;;;;;;;;;;;;;;;26.74;43.33;94338.63;4936046;28;6982;-62
2022/06/07 06:47:20;;;;;;;;;;;;;;;26.74;43.28;94337.88;4961478;28;7795;-63
2022/06/07 06:49:55;;;;;;;;;;;;;;;26.75;43.75;94331.09;5011064;28;9217;-62
2022/06/07 06:52:24;;;;;;;;;;;;;;;26.74;43.46;94337.88;5023484;28;7248;-63
2022/06/07 06:54:58;;;;;;;;;;;;;;;26.72;43.53;94332.09;5010062;28;7047;-63
2022/06/07 06:57:24;;;;;;;;;;;;;;;26.73;43.28;94341.91;5003428;28;9159;-63
2022/06/07 07:00:09;;;;;;;;;;;;;;;26.72;43.64;94349.41;5012968;28;9173;-63
2022/06/07 07:02:44;;;;;;;;;;;;;;;26.73;43.75;94347.44;5021951;28;7120;-64
2022/06/07 07:05:12;;;;;;;;;;;;;;;26.70;43.55;94342.91;5003498;28;9108;-63
2022/06/07 07:07:47;;;;;;;;;;;;;;;26.71;44.16;94347.91;5005761;28;7319;-64
2022/06/07 07:10:16;;;;;;;;;;;;;;;26.72;43.31;94348.66;5011095;28;6965;-64
2022/06/07 07:12:42;;;;;;;;;;;;;;;26.74;43.70;94348.91;5014180;28;8210;-64
2022/06/07 07:15:13;;;;;;;;;;;;;;;26.72;43.48;94352.16;5015119;28;9434;-63
2022/06/07 07:17:43;;;;;;;;;;;;;;;26.74;43.75;94352.41;5015168;28;9530;-63
2022/06/07 07:20:41;;;;;;;;;;;;;;;26.75;43.29;94355.94;4996066;28;7497;-63
2022/06/07 07:23:19;;;;;;;;;;;;;;;26.74;43.57;94355.19;4932226;29;7881;-63
2022/06/07 07:25:45;;;;;;;;;;;;;;;26.74;43.93;94355.19;4916871;29;9173;-63
2022/06/07 07:28:11;;;;;;;;;;;;;;;26.74;44.15;94359.94;4926502;29;9104;-63
2022/06/07 07:30:37;;;;;;;;;;;;;;;26.75;43.47;94364.22;4928772;29;6944;-63
2022/06/07 07:33:06;;;;;;;;;;;;;;;26.74;43.93;94357.19;4898189;29;7135;-63
2022/06/07 07:35:34;;;;;;;;;;;;;;;26.74;43.73;94355.19;4910074;29;7045;-63
2022/06/07 07:38:04;;;;;;;;;;;;;;;26.73;43.94;94348.16;4896280;29;8985;-63
2022/06/07 07:40:38;;;;;;;;;;;;;;;26.73;43.31;94355.72;4904505;29;8233;-64
2022/06/07 07:43:08;;;;;;;;;;;;;;;26.75;43.83;94350.41;4928879;29;9125;-63
2022/06/07 07:45:36;;;;;;;;;;;;;;;26.73;43.91;94347.44;4913934;29;7676;-63
2022/06/07 07:48:02;;;;;;;;;;;;;;;26.76;43.75;94351.91;4912330;29;9249;-63
2022/06/07 07:50:31;;;;;;;;;;;;;;;26.75;43.70;94342.88;4910373;29;9015;-63
2022/06/07 07:53:09;;;;;;;;;;;;;;;26.77;43.34;94356.16;4930381;29;7264;-63
2022/06/07 07:55:46;;;;;;;;;;;;;;;26.76;43.62;94349.13;4904562;29;7173;-63
2022/06/07 07:58:13;;;;;;;;;;;;;;;26.76;43.91;94351.91;4904270;29;7197;-63
2022/06/07 08:01:14;;;;;;;;;;;;;;;26.76;43.67;94351.91;5004249;28;7301;-63
2022/06/07 08:03:42;;;;;;;;;;;;;;;26.76;43.19;94349.13;4939963;28;7301;-63
2022/06/07 08:06:29;;;;;;;;;;;;;;;26.74;43.47;94341.38;4933962;29;7370;-63
2022/06/07 08:08:59;;;;;;;;;;;;;;;26.76;43.83;94347.13;4917249;29;7267;-64
2022/06/07 08:11:29;;;;;;;;;;;;;;;26.76;43.07;94349.13;4931328;28;7206;-63
2022/06/07 08:13:56;;;;;;;;;;;;;;;26.73;42.98;94341.91;4933150;29;7376;-63
2022/06/07 08:16:26;;;;;;;;;;;;;;;26.76;43.68;94349.13;4917553;29;7063;-63
2022/06/07 08:18:54;;;;;;;;;;;;;;;26.74;43.74;94346.16;4932429;29;7250;-63
2022/06/07 08:21:25;;;;;;;;;;;;;;;26.74;43.15;94344.16;4922296;29;7643;-63
2022/06/07 08:23:52;;;;;;;;;;;;;;;26.73;43.79;94341.91;4935111;29;7321;-63
2022/06/07 08:26:26;;;;;;;;;;;;;;;26.72;43.23;94338.38;4935765;29;7535;-63
2022/06/07 08:28:52;;;;;;;;;;;;;;;26.73;43.72;94342.63;4928596;29;7285;-63
2022/06/07 08:31:31;;;;;;;;;;;;;;;26.74;43.71;94332.34;4933653;29;6929;-63
2022/06/07 08:39:31;;;;;;;;;;;;;;;26.74;43.72;94346.16;4982686;28;8282;-63
2022/06/07 08:42:30;;;;;;;;;;;;;;;26.74;43.70;94349.66;5010080;28;7402;-63
2022/06/07 08:45:01;;;;;;;;;;;;;;;26.72;43.10;94343.13;5000838;28;9006;-63
2022/06/07 08:47:38;;;;;;;;;;;;;;;26.72;43.06;94346.66;5008784;28;7261;-63
2022/06/07 08:50:21;;;;;;;;;;;;;;;26.74;43.29;94346.16;5007084;28;9059;-64
2022/06/07 08:52:53;;;;;;;;;;;;;;;26.73;42.98;94350.19;5008463;28;7402;-64
2022/06/07 08:55:32;;;;;;;;;;;;;;;26.71;43.24;94344.38;5017210;28;7007;-64
2022/06/07 08:58:21;;;;;;;;;;;;;;;26.72;42.82;94345.91;5013119;28;7011;-63
2022/06/07 09:00:59;;;;;;;;;;;;;;;26.72;43.22;94340.38;5028893;28;9138;-64
2022/06/07 09:03:36;;;;;;;;;;;;;;;26.74;43.54;94338.63;5010097;28;9097;-63
2022/06/07 09:06:22;;;;;;;;;;;;;;;26.76;42.98;94340.84;5007785;28;9232;-63
2022/06/07 09:08:57;;;;;;;;;;;;;;;26.75;43.45;94336.63;4994732;28;7504;-63
2022/06/07 09:14:38;;;;;;;;;;;;;;;26.76;42.74;94324.31;5012331;28;7519;-64
2022/06/07 09:17:15;;;;;;;;;;;;;;;26.75;42.90;94322.81;5012821;28;8121;-63
2022/06/07 09:19:45;;;;;;;;;;;;;;;26.75;43.03;94322.81;5011044;28;7261;-63
2022/06/07 09:22:25;;;;;;;;;;;;;;;26.74;43.06;94322.06;5028895;28;7020;-63
2022/06/07 09:25:29;;;;;;;;;;;;;;;26.74;43.15;94333.09;5030826;28;7160;-63
2022/06/07 09:27:59;;;;;;;;;;;;;;;26.73;43.08;94328.13;4954276;28;7256;-63
2022/06/07 09:30:34;;;;;;;;;;;;;;;26.73;43.70;94334.34;4966274;28;9461;-63
2022/06/07 09:33:19;;;;;;;;;;;;;;;26.73;43.76;94328.84;4962488;28;8822;-63
2022/06/07 09:35:48;;;;;;;;;;;;;;;26.75;43.63;94333.84;4932505;28;8757;-64
2022/06/07 09:38:21;;;;;;;;;;;;;;;26.74;42.81;94324.06;4953749;28;8666;-64
2022/06/07 09:41:01;;;;;;;;;;;;;;;26.74;43.03;94324.06;4954373;28;7203;-63
2022/06/07 09:43:40;;;;;;;;;;;;;;;26.73;43.35;94323.31;4970233;28;9163;-64
2022/06/07 09:46:10;;;;;;;;;;;;;;;26.74;42.75;94324.81;4957936;28;7364;-64
2022/06/07 09:48:44;;;;;;;;;;;;;;;26.75;42.98;94323.53;4946602;28;7251;-64
2022/06/07 09:51:25;;;;;;;;;;;;;;;26.75;42.80;94322.81;4937354;28;9072;-64
2022/06/07 09:54:14;;;;;;;;;;;;;;;26.75;42.89;94309.75;4941539;28;8599;-63
2022/06/07 09:56:58;;;;;;;;;;;;;;;26.76;42.78;94318.78;4945076;28;9089;-63
2022/06/07 09:59:54;;;;;;;;;;;;;;;26.75;42.94;94312.50;4936124;28;9062;-63
2022/06/07 10:03:00;;;;;;;;;;;;;;;26.75;43.62;94314.53;4959775;28;7262;-63
2022/06/07 10:05:56;;;;;;;;;;;;;;;26.74;43.31;94310.28;4994058;28;7238;-63
2022/06/07 10:08:49;;;;;;;;;;;;;;;26.73;42.87;94309.53;4994247;28;9485;-64
2022/06/07 10:11:21;;;;;;;;;;;;;;;26.74;43.14;94302.75;4998548;28;7230;-64
2022/06/07 10:13:47;;;;;;;;;;;;;;;26.74;43.70;94294.47;5013918;28;9131;-63
2022/06/07 10:16:42;;;;;;;;;;;;;;;26.74;42.98;94294.47;5007774;28;8768;-63
2022/06/07 10:20:03;;;;;;;;;;;;;;;26.74;42.97;94290.97;5028965;28;7059;-63
2022/06/07 10:22:46;;;;;;;;;;;;;;;26.74;43.03;94293.72;4914692;29;7230;-63
2022/06/07 10:25:35;;;;;;;;;;;;;;;26.72;43.56;94282.44;4933897;29;7384;-63
2022/06/07 10:28:25;;;;;;;;;;;;;;;26.69;43.48;94284.22;4923219;29;9419;-64
2022/06/07 10:31:02;;;;;;;;;;;;;;;26.68;43.50;94282.00;4918384;29;7017;-63
2022/06/07 10:33:54;;;;;;;;;;;;;;;26.68;43.55;94279.97;4931553;29;6929;-64
2022/06/07 10:36:34;;;;;;;;;;;;;;;26.71;43.04;94275.41;4924854;29;9837;-63
2022/06/07 10:39:15;;;;;;;;;;;;;;;26.71;42.85;94275.41;4896596;29;7744;-63
2022/06/07 10:41:47;;;;;;;;;;;;;;;26.70;43.42;94268.41;4917779;29;9414;-63
2022/06/07 10:44:33;;;;;;;;;;;;;;;26.72;43.30;94268.63;4914423;29;9106;-64
2022/06/07 10:47:23;;;;;;;;;;;;;;;26.70;43.14;94260.88;4911226;29;7187;-63
2022/06/07 10:50:25;;;;;;;;;;;;;;;26.71;43.79;94261.63;4926218;29;9130;-63
2022/06/07 10:53:17;;;;;;;;;;;;;;;26.72;43.62;94263.13;4933367;28;9468;-63
2022/06/07 10:56:12;;;;;;;;;;;;;;;26.68;43.74;94248.88;4950030;28;9014;-63
2022/06/07 10:58:57;;;;;;;;;;;;;;;26.70;43.05;94249.09;5016293;28;7549;-63
2022/06/07 11:01:41;;;;;;;;;;;;;;;26.71;43.79;94251.34;5008696;28;9758;-63
2022/06/07 11:10:17;;;;;;;;;;;;;;;26.74;43.02;94244.81;5026830;28;9191;-63
2022/06/07 11:12:58;;;;;;;;;;;;;;;26.74;43.38;94241.28;5011297;28;9627;-63
2022/06/07 11:15:27;;;;;;;;;;;;;;;26.72;43.40;94235.53;4995012;28;7146;-63
2022/06/07 11:18:28;;;;;;;;;;;;;;;26.70;43.82;94238.81;4996623;28;9464;-63
2022/06/07 11:21:03;;;;;;;;;;;;;;;26.71;44.15;94234.03;4961404;28;9419;-63
2022/06/07 11:24:07;;;;;;;;;;;;;;;26.70;43.93;94227.03;4975127;28;7274;-63
2022/06/07 11:27:04;;;;;;;;;;;;;;;26.70;43.02;94227.03;4983417;28;8062;-63
2022/06/07 11:29:33;;;;;;;;;;;;;;;26.70;43.78;94221.50;4972722;28;8406;-63
2022/06/07 11:32:02;;;;;;;;;;;;;;;26.70;43.93;94216.00;4980628;28;7457;-63
2022/06/07 11:34:40;;;;;;;;;;;;;;;26.70;43.66;94211.22;4956198;28;7240;-63
2022/06/07 11:37:18;;;;;;;;;;;;;;;26.71;43.53;94206.44;4972468;28;9470;-63
2022/06/07 11:39:52;;;;;;;;;;;;;;;26.70;43.42;94204.97;4977225;28;9918;-63
2022/06/07 11:42:33;;;;;;;;;;;;;;;26.71;43.80;94211.94;4987189;28;6995;-63
2022/06/07 11:45:21;;;;;;;;;;;;;;;26.72;43.26;94203.16;4975055;28;7185;-63
2022/06/07 11:48:11;;;;;;;;;;;;;;;26.72;43.92;94197.66;4974902;28;7080;-63
2022/06/07 11:51:15;;;;;;;;;;;;;;;26.73;43.35;94190.16;4986588;28;7318;-63
2022/06/07 11:54:04;;;;;;;;;;;;;;;26.75;43.98;94190.38;4988045;28;7242;-63
2022/06/07 11:56:55;;;;;;;;;;;;;;;26.75;43.93;94184.84;5010213;28;7216;-63
2022/06/07 11:59:21;;;;;;;;;;;;;;;26.76;44.05;94181.56;5024083;28;7128;-63
2022/06/07 12:02:04;;;;;;;;;;;;;;;26.76;43.38;94189.09;4998439;28;9406;-63
2022/06/07 12:04:44;;;;;;;;;;;;;;;26.75;43.97;94188.34;5012015;28;6993;-63
2022/06/07 12:07:38;;;;;;;;;;;;;;;26.74;43.74;94188.88;4995965;28;7316;-63
2022/06/07 12:10:17;;;;;;;;;;;;;;;26.72;43.95;94181.09;5014144;28;7248;-63
2022/06/07 12:12:53;;;;;;;;;;;;;;;26.73;43.60;94195.69;5024778;28;8767;-63
2022/06/07 12:15:19;;;;;;;;;;;;;;;26.72;43.57;94202.41;5012551;28;9056;-63
2022/06/07 12:18:01;;;;;;;;;;;;;;;26.71;43.34;94212.72;5010905;28;9461;-63
2022/06/07 12:20:35;;;;;;;;;;;;;;;26.70;43.63;94216.75;5012386;28;8768;-64
2022/06/07 12:23:28;;;;;;;;;;;;;;;26.71;44.09;94212.72;5013154;28;7009;-63
2022/06/07 12:26:04;;;;;;;;;;;;;;;26.72;43.87;94213.47;5019043;28;7246;-63
2022/06/07 12:29:11;;;;;;;;;;;;;;;26.72;43.59;94225.25;5023225;28;7007;-62
2022/06/07 12:31:50;;;;;;;;;;;;;;;26.69;43.76;94240.06;4931580;29;9135;-63
2022/06/07 12:34:20;;;;;;;;;;;;;;;26.67;43.65;94226.06;4935958;29;9059;-63
2022/06/07 12:36:57;;;;;;;;;;;;;;;26.69;44.42;94223.53;4923699;29;9125;-63
2022/06/07 12:39:29;;;;;;;;;;;;;;;26.69;44.01;94222.75;4927757;29;8079;-64
2022/06/07 12:41:59;;;;;;;;;;;;;;;26.68;44.21;94204.75;4937040;29;8778;-63
2022/06/07 12:44:43;;;;;;;;;;;;;;;26.69;44.33;94203.44;4934903;29;7920;-64
2022/06/07 12:47:33;;;;;;;;;;;;;;;26.68;44.46;94201.97;4939040;29;7320;-64
2022/06/07 12:50:01;;;;;;;;;;;;;;;26.70;44.54;94210.47;4941235;29;7293;-64
2022/06/07 12:52:31;;;;;;;;;;;;;;;26.70;44.49;94193.91;4918076;29;7318;-63
2022/06/07 12:55:22;;;;;;;;;;;;;;;26.72;44.48;94197.66;4926625;29;7265;-64
2022/06/07 12:57:55;;;;;;;;;;;;;;;26.73;44.01;94193.63;4825333;29;7273;-63
2022/06/07 13:00:26;;;;;;;;;;;;;;;26.72;44.32;94191.38;4827805;29;9114;-64
2022/06/07 13:03:03;;;;;;;;;;;;;;;26.74;44.37;94186.88;4825562;29;9112;-64
2022/06/07 13:05:34;;;;;;;;;;;;;;;26.74;44.85;94186.13;4830731;29;6978;-64
2022/06/07 13:08:03;;;;;;;;;;;;;;;26.74;44.56;94188.88;4875611;29;7010;-64
2022/06/07 13:10:36;;;;;;;;;;;;;;;26.76;44.47;94200.13;4907424;29;7102;-64
2022/06/07 13:13:13;;;;;;;;;;;;;;;26.76;43.88;94205.66;4899338;29;9030;-64
2022/06/07 13:16:01;;;;;;;;;;;;;;;26.77;44.79;94220.94;4897602;29;7227;-64
2022/06/07 13:18:44;;;;;;;;;;;;;;;26.77;44.65;94220.94;4924559;29;8841;-64
2022/06/07 13:21:09;;;;;;;;;;;;;;;26.78;44.30;94227.94;4894745;29;9414;-63
2022/06/07 13:23:40;;;;;;;;;;;;;;;26.78;44.77;94231.47;4913576;29;9172;-65
2022/06/07 13:26:11;;;;;;;;;;;;;;;26.78;44.56;94239.72;4895869;29;9198;-63
2022/06/07 13:28:40;;;;;;;;;;;;;;;26.79;43.94;94240.50;4892787;29;7300;-64
2022/06/07 13:31:44;;;;;;;;;;;;;;;26.79;44.69;94244.00;4890870;29;7150;-64
2022/06/07 13:34:20;;;;;;;;;;;;;;;26.80;44.07;94253.00;4846052;29;9124;-63
2022/06/07 13:37:10;;;;;;;;;;;;;;;26.79;44.50;94248.75;4905858;29;8813;-64
2022/06/07 13:39:40;;;;;;;;;;;;;;;26.79;44.81;94243.25;4891159;29;7305;-64
2022/06/07 13:42:25;;;;;;;;;;;;;;;26.77;44.42;94243.75;4891475;29;7264;-64
2022/06/07 13:45:12;;;;;;;;;;;;;;;26.77;44.07;94238.22;4900698;29;7175;-64
2022/06/07 13:47:52;;;;;;;;;;;;;;;26.80;44.47;94236.44;4884028;29;6992;-64
2022/06/07 13:53:56;;;;;;;;;;;;;;;26.79;44.36;94232.22;4906877;29;9078;-64
2022/06/07 13:56:39;;;;;;;;;;;;;;;26.78;44.62;94216.91;4905047;29;9157;-63
2022/06/07 13:59:37;;;;;;;;;;;;;;;26.82;44.55;94220.09;4913511;29;8787;-64
2022/06/07 14:02:11;;;;;;;;;;;;;;;26.83;43.41;94213.34;4837931;29;8234;-64
2022/06/07 14:04:37;;;;;;;;;;;;;;;26.84;43.61;94214.81;4842698;29;7214;-63
2022/06/07 14:07:11;;;;;;;;;;;;;;;26.80;43.76;94211.59;4834314;29;7496;-64
2022/06/07 14:09:38;;;;;;;;;;;;;;;26.82;44.36;94207.06;4843752;29;8774;-64